首页
METAR-TAF:

METAR-TAF

机场 :

迪奥里·哈马尼国际机场

尼亞美, 尼日尔

纬度: 13-29N, 经度: 002-10E, 海拔: 223米

当前天气观测

该预报发布于15分钟前的20:00 UTC
风速2节,风向北转东北
温度 30°C
湿度 21%
气压 1013 hPa
能見度: 6000

METAR: DRRN 202000Z 03002KT 6000 NSC 30/05 Q1013 NOSIG

时间: 21:15 (20:15 UTC)

预报

该预报发布于3小时和15分钟前的17:00 UTC
预报有效从20日的 18点(UTC)到 21日的 24点(UTC)
风速8节,风向北转东北
能見度: 6000
短暂存在
从 20日的 18点(UTC)到 20日的 22点(UTC)
能見度: 4000
浮尘
短暂存在
从 21日的 06点(UTC)到 21日的 08点(UTC)
能見度: 3000
浮尘
短暂存在
从 21日的 09点(UTC)到 21日的 13点(UTC)
风速15节,风向
能見度: 4000
高吹尘

TAF: DRRN 201700Z 2018/2124 03008KT 6000 NSC TEMPO 2018/2022 4000 DU TEMPO 2106/2108 3000 DU TEMPO 2109/2113 10015KT 4000 BLDU

超过4000个机场的气象观测和天气预报(METAR&TAF报告)。

可查询的气象台以黄色和红色小点在地图上表示。

将鼠标移到小点上方,可查看气象台名称。

然后点击查看天气观测和预报。

如需切换地图:点击带黑十字的绿色按钮放大地图;点击带横线的绿色按钮缩小地图;或者点击绿色箭头查看邻近地区的地图。


METAR-TAF: